Abdangsar-e Latleyl, Iran

50°F / 10°C
Clear
Humidity: 94%
Dew Point: 48°F / 9°C
Wind: North at 0 mph / 0 km/h
Pressure: 30.04 in / 1017 hPa (Steady)
Visibility: -
Clouds:
Yesterday's Maximum: 50°F / 10°C
Yesterday's Minimum: 39°F / 4°C approx.
Yesterday's Heating Degree Days: 20 approx.
Sunrise:6:50 AM +0330
Sunset:5:55 PM +0330
Moon Rise:9:16 PM +0330
Moon Set:8:45 AM +0330
Moon Phase Waning Gibbous
NOAA Weather Radio
No local feed.
METAR OINR 221500Z 00000KT CAVOK 10/09 Q1017
As of: 6:30 PM +0330 on February 22, 2019
Observed at: Ramsar, Iran

View Station's History

Local Satellite

Current Satellite Forecast
Region Default Local
No Yes

View Full Screen WunderMap

Forecast

Current Satellite Forecast
Thursday
. High: 50° F. / 10° C.

. High: 55° F. / 13° C.

Features

Weather Apps

WunderRadio

Weather Underground Apps
Check out our wide variety of mobile and setup applications.

Weather Underground Applications

Top of Page

© Copyright 2019
The Weather Company, LLC